Time;durP1;ratioP1;P1;durP2;ratioP2;P2;SDS_P1;SDS_P2;PMS_P1;PMS_P2;Temp;Humidity;BMP_temperature;BMP_pressure;BME280_temperature;BME280_humidity;BME280_pressure;Samples;Min_cycle;Max_cycle;Signal;HPM_P1;HPM_P2
2022/02/13 00:00:44;;;;;;;6.43;4.37;;;2.50;99.90;;;;;;5029633;28;20428;-78
2022/02/13 00:03:10;;;;;;;6.40;4.70;;;2.50;99.90;;;;;;5029609;28;20473;-78
2022/02/13 00:05:36;;;;;;;6.00;4.80;;;2.50;99.90;;;;;;5029833;28;20431;-78
2022/02/13 00:08:02;;;;;;;8.30;4.30;;;2.50;99.90;;;;;;5029528;28;20266;-78
2022/02/13 00:10:27;;;;;;;11.20;5.60;;;2.50;99.90;;;;;;5029958;28;20183;-79
2022/02/13 00:12:53;;;;;;;8.50;5.30;;;2.50;99.90;;;;;;5029367;28;20206;-79
2022/02/13 00:15:19;;;;;;;7.83;4.20;;;2.40;99.90;;;;;;5029569;28;20210;-78
2022/02/13 00:17:46;;;;;;;11.17;5.33;;;2.40;99.90;;;;;;5029997;28;20188;-78
2022/02/13 00:20:12;;;;;;;11.00;4.87;;;2.30;99.90;;;;;;5029515;28;20277;-79
2022/02/13 00:22:38;;;;;;;10.40;5.27;;;2.30;99.90;;;;;;5029787;28;21043;-78
2022/02/13 00:25:04;;;;;;;13.23;5.27;;;2.30;99.90;;;;;;5029529;28;20424;-79
2022/02/13 00:27:30;;;;;;;5.70;3.70;;;2.30;99.90;;;;;;5029390;28;20428;-78
2022/02/13 00:29:56;;;;;;;8.03;4.70;;;2.30;99.90;;;;;;5029270;28;20456;-78
2022/02/13 00:32:23;;;;;;;14.00;4.63;;;2.30;99.90;;;;;;5013918;28;20216;-78
2022/02/13 00:34:49;;;;;;;6.63;4.20;;;2.20;99.90;;;;;;5029257;28;20702;-78
2022/02/13 00:37:15;;;;;;;10.93;4.63;;;2.20;99.90;;;;;;5029097;28;20433;-78
2022/02/13 00:39:41;;;;;;;9.83;5.00;;;2.30;99.90;;;;;;5029357;28;20425;-78
2022/02/13 00:42:07;;;;;;;8.93;5.00;;;2.30;99.90;;;;;;5028802;28;20416;-78
2022/02/13 00:44:33;;;;;;;6.23;3.90;;;2.30;99.90;;;;;;5029087;28;20532;-78
2022/02/13 00:46:59;;;;;;;8.50;5.40;;;2.30;99.90;;;;;;5028938;28;20521;-78
2022/02/13 00:49:25;;;;;;;6.60;4.67;;;2.30;99.90;;;;;;5028973;28;20648;-79
2022/02/13 00:51:51;;;;;;;15.60;4.90;;;2.30;99.90;;;;;;5029090;28;20191;-78
2022/02/13 00:54:16;;;;;;;9.93;4.70;;;2.30;99.90;;;;;;5028961;28;20217;-78
2022/02/13 00:56:42;;;;;;;8.20;4.80;;;2.20;99.90;;;;;;5028779;28;20431;-78
2022/02/13 00:59:08;;;;;;;6.60;4.57;;;2.30;99.90;;;;;;5029182;28;20182;-78
2022/02/13 01:01:33;;;;;;;8.20;4.83;;;2.20;99.90;;;;;;5028884;28;20187;-78
2022/02/13 01:03:59;;;;;;;8.20;4.87;;;2.20;99.90;;;;;;5028909;28;20210;-77
2022/02/13 01:06:27;;;;;;;7.13;4.80;;;2.20;99.90;;;;;;5029035;28;20726;-79
2022/02/13 01:08:53;;;;;;;6.40;3.80;;;2.20;99.90;;;;;;5037850;28;20272;-78
2022/02/13 01:11:18;;;;;;;6.13;4.17;;;2.20;99.90;;;;;;5036472;28;20471;-79
2022/02/13 01:13:48;;;;;;;7.07;3.73;;;2.30;99.90;;;;;;5037142;28;20507;-79
2022/02/13 01:16:18;;;;;;;8.67;5.70;;;2.30;99.90;;;;;;5039485;28;20213;-79
2022/02/13 01:18:44;;;;;;;8.37;4.80;;;2.30;99.90;;;;;;5038982;28;20508;-79
2022/02/13 01:21:13;;;;;;;6.10;3.87;;;2.30;99.90;;;;;;5039462;28;20427;-79
2022/02/13 01:23:43;;;;;;;6.60;4.33;;;2.40;99.90;;;;;;5039492;28;20502;-79
2022/02/13 01:26:12;;;;;;;6.30;4.50;;;2.40;99.90;;;;;;5039175;28;20428;-79
2022/02/13 01:28:39;;;;;;;8.03;4.60;;;2.40;99.90;;;;;;5038851;28;20455;-79
2022/02/13 01:31:06;;;;;;;8.63;4.83;;;2.40;99.90;;;;;;5039076;28;20580;-79
2022/02/13 01:33:33;;;;;;;8.93;4.03;;;2.50;99.90;;;;;;5051437;22;21006;-87
2022/02/13 01:36:00;;;;;;;8.63;4.80;;;2.40;99.90;;;;;;5035069;28;20404;-86
2022/02/13 01:38:26;;;;;;;11.07;7.03;;;2.40;99.90;;;;;;5056456;28;20428;-87
2022/02/13 01:40:53;;;;;;;8.17;5.30;;;2.40;99.90;;;;;;5015179;28;20425;-87
2022/02/13 01:43:19;;;;;;;7.90;3.93;;;2.40;99.90;;;;;;5023815;28;20465;-87
2022/02/13 01:45:45;;;;;;;7.10;4.70;;;2.40;99.90;;;;;;5031513;28;20987;-85
2022/02/13 01:48:12;;;;;;;7.03;4.73;;;2.30;99.90;;;;;;5031576;28;20965;-87
2022/02/13 01:50:39;;;;;;;8.00;4.87;;;2.30;99.90;;;;;;5031629;28;20444;-85
2022/02/13 01:53:05;;;;;;;7.90;4.17;;;2.20;99.90;;;;;;5031283;28;20436;-87
2022/02/13 01:55:30;;;;;;;8.80;4.63;;;2.10;99.90;;;;;;5031231;28;20556;-87
2022/02/13 01:57:59;;;;;;;8.07;5.03;;;2.10;99.90;;;;;;5031151;28;20214;-88
2022/02/13 02:00:25;;;;;;;10.13;4.13;;;2.00;99.90;;;;;;5031396;28;20183;-87
2022/02/13 02:02:51;;;;;;;8.73;4.60;;;2.10;99.90;;;;;;5031267;28;20446;-87
2022/02/13 02:05:17;;;;;;;5.83;4.03;;;2.00;99.90;;;;;;5031444;28;20512;-88
2022/02/13 02:07:43;;;;;;;6.23;3.80;;;2.00;99.90;;;;;;5030860;28;20870;-87
2022/02/13 02:10:08;;;;;;;8.87;4.30;;;2.00;99.90;;;;;;5031436;28;20208;-87
2022/02/13 02:12:38;;;;;;;6.03;4.50;;;1.90;99.90;;;;;;5015794;28;20206;-87
2022/02/13 02:15:06;;;;;;;8.63;4.30;;;1.90;99.90;;;;;;5031015;28;20225;-88
2022/02/13 02:17:32;;;;;;;7.33;3.87;;;1.90;99.90;;;;;;5030683;28;20420;-88
2022/02/13 02:19:58;;;;;;;12.50;5.30;;;1.80;99.90;;;;;;5031041;28;20426;-87
2022/02/13 02:22:24;;;;;;;8.47;4.80;;;1.80;99.90;;;;;;5015603;28;20428;-87
2022/02/13 02:24:50;;;;;;;11.23;4.17;;;1.80;99.90;;;;;;5030792;28;20185;-88
2022/02/13 02:27:15;;;;;;;6.07;3.70;;;1.80;99.90;;;;;;5030446;28;20431;-87
2022/02/13 02:29:41;;;;;;;6.87;4.40;;;1.70;99.90;;;;;;5030726;28;20181;-87
2022/02/13 02:32:11;;;;;;;7.90;5.00;;;1.70;99.90;;;;;;5030656;28;20185;-87
2022/02/13 02:34:40;;;;;;;6.90;4.10;;;1.70;99.90;;;;;;5015255;28;20241;-87
2022/02/13 02:37:06;;;;;;;6.93;4.43;;;1.70;99.90;;;;;;5030358;28;20430;-87
2022/02/13 02:39:32;;;;;;;5.47;3.70;;;1.70;99.90;;;;;;5030566;28;20421;-87
2022/02/13 02:41:58;;;;;;;9.13;4.47;;;1.70;99.90;;;;;;5030549;28;20509;-88
2022/02/13 02:44:23;;;;;;;8.43;4.57;;;1.70;99.90;;;;;;5030843;28;20578;-87
2022/02/13 02:46:49;;;;;;;6.40;4.07;;;1.70;99.90;;;;;;5030110;28;20182;-86
2022/02/13 02:49:14;;;;;;;8.53;4.20;;;1.60;99.90;;;;;;5030457;28;20190;-87
2022/02/13 02:51:40;;;;;;;6.50;4.33;;;1.60;99.90;;;;;;5030654;28;20632;-87
2022/02/13 02:54:06;;;;;;;5.57;4.30;;;1.60;99.90;;;;;;5030158;28;20259;-86
2022/02/13 02:56:31;;;;;;;6.17;4.40;;;1.60;99.90;;;;;;5030007;28;20621;-88
2022/02/13 02:58:57;;;;;;;8.27;5.10;;;1.60;99.90;;;;;;5030234;28;20455;-87
2022/02/13 03:01:23;;;;;;;8.00;4.90;;;1.60;99.90;;;;;;5030165;28;20188;-87
2022/02/13 03:03:48;;;;;;;7.77;4.70;;;1.50;99.90;;;;;;5030163;28;20209;-87
2022/02/13 03:06:14;;;;;;;10.40;5.60;;;1.50;99.90;;;;;;5014639;28;20657;-87
2022/02/13 03:08:39;;;;;;;8.60;4.23;;;1.50;99.90;;;;;;5029791;28;20637;-87
2022/02/13 03:11:05;;;;;;;5.20;4.40;;;1.50;99.90;;;;;;5029958;28;20181;-87
2022/02/13 03:13:31;;;;;;;8.90;4.57;;;1.50;99.90;;;;;;5013649;28;20562;-87
2022/02/13 03:15:57;;;;;;;9.53;5.10;;;1.40;99.90;;;;;;5029820;28;20253;-87
2022/02/13 03:18:23;;;;;;;9.40;6.70;;;1.40;99.90;;;;;;5029774;28;20191;-87
2022/02/13 03:20:50;;;;;;;8.37;4.10;;;1.40;99.90;;;;;;5029910;28;20186;-87
2022/02/13 03:23:18;;;;;;;5.30;4.10;;;1.40;99.90;;;;;;5029636;28;20856;-87
2022/02/13 03:25:44;;;;;;;8.73;5.00;;;1.40;99.90;;;;;;5029684;28;20939;-87
2022/02/13 03:28:10;;;;;;;8.83;4.93;;;1.30;99.90;;;;;;5029461;28;20471;-87
2022/02/13 03:30:36;;;;;;;10.17;4.60;;;1.40;99.90;;;;;;5029768;28;20177;-87
2022/02/13 03:33:02;;;;;;;8.47;4.93;;;1.30;99.90;;;;;;5014223;28;20895;-87
2022/02/13 03:35:28;;;;;;;5.13;4.00;;;1.30;99.90;;;;;;5029335;28;20500;-87
2022/02/13 03:37:54;;;;;;;6.30;4.33;;;1.30;99.90;;;;;;5029006;28;20427;-87
2022/02/13 03:40:19;;;;;;;6.10;4.50;;;1.30;99.90;;;;;;5029596;28;20181;-87
2022/02/13 03:42:45;;;;;;;10.33;4.07;;;1.30;99.90;;;;;;5029389;28;20440;-86
2022/02/13 03:45:12;;;;;;;8.10;4.83;;;1.30;99.90;;;;;;5029294;28;20181;-87
2022/02/13 03:47:39;;;;;;;7.73;4.60;;;1.30;99.90;;;;;;5029048;28;20615;-87
2022/02/13 03:50:05;;;;;;;7.33;4.60;;;1.30;99.90;;;;;;5029326;28;20840;-87
2022/02/13 03:52:31;;;;;;;5.30;3.70;;;1.20;99.90;;;;;;5029141;28;20815;-87
2022/02/13 03:54:56;;;;;;;8.77;4.80;;;1.20;99.90;;;;;;5029096;28;20558;-86
2022/02/13 03:57:22;;;;;;;6.27;3.83;;;1.20;99.90;;;;;;5028722;28;20230;-87
2022/02/13 03:59:48;;;;;;;10.10;4.97;;;1.20;99.90;;;;;;5029093;28;20192;-87
2022/02/13 04:02:13;;;;;;;7.80;4.23;;;1.10;99.90;;;;;;5028961;28;20205;-87
2022/02/13 04:04:39;;;;;;;7.53;4.77;;;1.10;99.90;;;;;;5013750;28;20185;-87
2022/02/13 04:07:04;;;;;;;7.90;4.30;;;1.10;99.90;;;;;;5028533;28;20193;-87
2022/02/13 04:09:31;;;;;;;9.30;4.10;;;1.00;99.90;;;;;;5028846;28;20198;-87
2022/02/13 04:11:57;;;;;;;7.10;4.57;;;1.00;99.90;;;;;;5028810;28;20189;-87
2022/02/13 04:14:22;;;;;;;6.93;4.50;;;1.00;99.90;;;;;;5028655;28;20828;-87
2022/02/13 04:16:48;;;;;;;5.93;4.07;;;0.90;99.90;;;;;;5028433;28;20271;-87
2022/02/13 04:19:13;;;;;;;7.93;5.13;;;0.90;99.90;;;;;;5028717;28;20184;-87
2022/02/13 04:21:39;;;;;;;7.07;3.90;;;0.90;99.90;;;;;;5028623;28;20595;-87
2022/02/13 04:24:04;;;;;;;6.10;4.30;;;0.90;99.90;;;;;;5028607;28;20203;-87
2022/02/13 04:26:30;;;;;;;6.63;4.13;;;0.80;99.90;;;;;;5028231;28;20216;-88
2022/02/13 04:28:55;;;;;;;8.63;4.37;;;0.90;99.90;;;;;;5028560;28;20187;-87
2022/02/13 04:31:21;;;;;;;10.80;4.83;;;0.80;99.90;;;;;;5028649;28;20268;-87
2022/02/13 04:33:46;;;;;;;12.53;4.83;;;0.90;99.90;;;;;;5028189;28;20679;-86
2022/02/13 04:36:12;;;;;;;8.07;4.67;;;0.90;99.90;;;;;;5028308;28;20188;-87
2022/02/13 04:38:38;;;;;;;7.63;4.30;;;0.90;99.90;;;;;;5028342;28;20184;-88
2022/02/13 04:41:06;;;;;;;8.70;4.57;;;0.80;99.90;;;;;;5028319;28;20275;-87
2022/02/13 04:43:32;;;;;;;9.20;5.13;;;0.80;99.90;;;;;;5028729;28;20608;-87
2022/02/13 04:45:57;;;;;;;7.77;4.63;;;0.80;99.90;;;;;;5028293;28;20419;-87
2022/02/13 04:48:23;;;;;;;9.03;4.80;;;0.80;99.90;;;;;;5011968;28;20416;-87
2022/02/13 04:50:48;;;;;;;7.20;5.37;;;0.70;99.90;;;;;;5028270;28;20181;-87
2022/02/13 04:53:15;;;;;;;7.07;5.00;;;0.70;99.90;;;;;;5011839;28;20651;-87
2022/02/13 04:55:41;;;;;;;7.13;4.83;;;0.70;99.90;;;;;;5028053;28;20308;-87
2022/02/13 04:58:06;;;;;;;8.20;4.83;;;0.70;99.90;;;;;;5027920;28;20517;-87
2022/02/13 05:00:32;;;;;;;7.60;4.53;;;0.70;99.90;;;;;;5028122;28;20428;-87
2022/02/13 05:02:58;;;;;;;7.07;3.93;;;0.70;99.90;;;;;;5028021;28;20201;-87
2022/02/13 05:05:23;;;;;;;11.40;5.17;;;0.70;99.90;;;;;;5028018;28;20189;-87
2022/02/13 05:07:49;;;;;;;6.13;4.70;;;0.70;99.90;;;;;;5027950;28;20212;-87
2022/02/13 05:10:15;;;;;;;9.17;4.97;;;0.70;99.90;;;;;;5027966;28;20655;-87
2022/02/13 05:12:40;;;;;;;6.90;4.90;;;0.70;99.90;;;;;;5027979;28;20208;-87
2022/02/13 05:15:07;;;;;;;7.60;4.53;;;0.80;99.90;;;;;;5027849;28;20231;-87
2022/02/13 05:17:34;;;;;;;9.70;4.70;;;0.80;99.90;;;;;;5027891;28;20192;-87
2022/02/13 05:20:00;;;;;;;7.77;4.90;;;0.80;99.90;;;;;;5012758;28;20425;-87
2022/02/13 05:22:25;;;;;;;6.10;4.13;;;0.80;99.90;;;;;;5012753;28;20435;-87
2022/02/13 05:24:51;;;;;;;8.43;4.90;;;0.80;99.90;;;;;;5027971;28;20231;-87
2022/02/13 05:27:17;;;;;;;8.20;5.17;;;0.80;99.90;;;;;;5027526;28;20192;-88
2022/02/13 05:29:43;;;;;;;7.47;5.13;;;0.80;99.90;;;;;;5028044;28;20436;-87
2022/02/13 05:32:09;;;;;;;8.80;4.87;;;0.80;99.90;;;;;;5027590;28;20451;-88
2022/02/13 05:34:35;;;;;;;8.27;4.90;;;0.70;99.90;;;;;;5012537;28;20346;-88
2022/02/13 05:37:00;;;;;;;7.00;5.57;;;0.70;99.90;;;;;;5027386;28;20478;-87
2022/02/13 05:39:26;;;;;;;8.03;4.40;;;0.70;99.90;;;;;;5027716;28;20537;-87
2022/02/13 05:41:52;;;;;;;12.53;4.30;;;0.70;99.90;;;;;;5028065;28;20642;-86
2022/02/13 05:44:18;;;;;;;8.27;5.20;;;0.70;99.90;;;;;;5027748;28;20181;-87
2022/02/13 05:46:44;;;;;;;8.13;4.83;;;0.70;99.90;;;;;;5027292;28;20436;-87
2022/02/13 05:49:09;;;;;;;8.40;4.63;;;0.70;99.90;;;;;;5027758;28;20279;-87
2022/02/13 05:51:36;;;;;;;11.03;4.80;;;0.70;99.90;;;;;;5027639;28;20239;-87
2022/02/13 05:54:02;;;;;;;7.00;4.73;;;0.60;99.90;;;;;;5027500;28;20209;-87
2022/02/13 05:56:28;;;;;;;5.70;3.77;;;0.60;99.90;;;;;;5027046;28;20517;-87
2022/02/13 05:58:54;;;;;;;8.90;5.37;;;0.60;99.90;;;;;;5011270;28;20537;-87
2022/02/13 06:01:20;;;;;;;6.80;4.77;;;0.60;99.90;;;;;;5047949;28;20430;-87
2022/02/13 06:03:46;;;;;;;7.13;4.60;;;0.60;99.90;;;;;;5015858;28;20205;-87
2022/02/13 06:06:12;;;;;;;9.10;5.07;;;0.60;99.90;;;;;;5015036;28;20189;-87
2022/02/13 06:08:38;;;;;;;10.43;5.03;;;0.60;99.90;;;;;;5014839;28;20433;-87
2022/02/13 06:11:05;;;;;;;7.60;4.67;;;0.60;99.90;;;;;;5014665;28;20432;-86
2022/02/13 06:13:30;;;;;;;9.97;4.80;;;0.60;99.90;;;;;;5014516;28;20444;-87
2022/02/13 06:15:56;;;;;;;7.57;4.60;;;0.60;99.90;;;;;;5014505;28;20772;-87
2022/02/13 06:18:21;;;;;;;6.40;5.07;;;0.60;99.90;;;;;;5015576;28;20184;-87
2022/02/13 06:20:47;;;;;;;7.23;4.40;;;0.70;99.90;;;;;;5014578;28;20181;-87
2022/02/13 06:23:14;;;;;;;8.60;4.70;;;0.60;99.90;;;;;;5015670;28;20197;-87
2022/02/13 06:25:40;;;;;;;9.00;4.93;;;0.70;99.90;;;;;;5014113;28;20243;-88
2022/02/13 06:28:06;;;;;;;9.07;5.20;;;0.60;99.90;;;;;;5014240;28;20672;-87
2022/02/13 06:30:33;;;;;;;9.43;4.90;;;0.60;99.90;;;;;;5014620;28;20518;-87
2022/02/13 06:32:59;;;;;;;6.20;4.10;;;0.60;99.90;;;;;;5014188;28;20474;-88
2022/02/13 06:35:26;;;;;;;7.57;4.60;;;0.50;99.90;;;;;;5014021;28;20463;-87
2022/02/13 06:37:52;;;;;;;6.33;4.30;;;0.50;99.90;;;;;;5014208;28;20416;-87
2022/02/13 06:40:18;;;;;;;7.30;5.50;;;0.50;99.90;;;;;;5014194;28;20427;-88
2022/02/13 06:42:43;;;;;;;8.30;4.97;;;0.60;99.90;;;;;;5028845;28;20459;-89
2022/02/13 06:45:09;;;;;;;7.70;5.10;;;0.50;99.90;;;;;;5017704;28;20220;-87
2022/02/13 06:47:35;;;;;;;9.43;5.80;;;0.50;99.90;;;;;;5016872;28;20213;-88
2022/02/13 06:50:01;;;;;;;7.00;4.83;;;0.50;99.90;;;;;;5049675;28;20188;-88
2022/02/13 06:52:26;;;;;;;8.77;5.30;;;0.50;99.90;;;;;;5048604;28;20650;-88
2022/02/13 06:54:52;;;;;;;10.50;4.60;;;0.50;99.90;;;;;;5016897;28;20550;-87
2022/02/13 06:57:18;;;;;;;7.00;5.00;;;0.50;99.90;;;;;;5016580;28;20524;-88
2022/02/13 06:59:43;;;;;;;7.33;4.67;;;0.50;99.90;;;;;;5015647;28;20220;-88
2022/02/13 07:02:12;;;;;;;8.87;4.43;;;0.40;99.90;;;;;;5015454;28;20188;-88
2022/02/13 07:04:38;;;;;;;7.90;4.80;;;0.50;99.90;;;;;;5015774;28;20189;-88
2022/02/13 07:07:10;;;;;;;8.27;5.00;;;0.50;99.90;;;;;;5015281;28;20782;-87
2022/02/13 07:09:36;;;;;;;8.77;4.87;;;0.50;99.90;;;;;;5016835;28;20501;-87
2022/02/13 07:12:09;;;;;;;7.93;5.23;;;0.60;99.90;;;;;;5030804;28;20460;-88
2022/02/13 07:14:39;;;;;;;7.20;4.80;;;0.70;99.90;;;;;;5015483;28;20680;-87
2022/02/13 07:17:05;;;;;;;7.73;4.80;;;0.70;99.90;;;;;;5015899;28;20412;-87
2022/02/13 07:19:31;;;;;;;12.77;5.00;;;0.80;99.90;;;;;;5014855;28;21017;-87
2022/02/13 07:21:57;;;;;;;10.00;4.70;;;0.80;99.90;;;;;;5014357;28;20507;-88
2022/02/13 07:24:22;;;;;;;6.37;4.47;;;0.90;99.90;;;;;;5015245;28;20473;-88
2022/02/13 07:26:48;;;;;;;7.93;4.60;;;1.00;99.90;;;;;;5014112;28;20192;-87
2022/02/13 07:29:14;;;;;;;7.43;5.77;;;1.00;99.90;;;;;;5014305;28;20557;-87
2022/02/13 07:31:40;;;;;;;9.80;5.47;;;1.10;99.90;;;;;;5014366;28;20252;-87
2022/02/13 07:34:07;;;;;;;10.57;6.43;;;1.20;99.90;;;;;;5046199;23;20235;-77
2022/02/13 07:36:34;;;;;;;10.90;5.23;;;1.20;99.90;;;;;;5028262;28;20192;-77
2022/02/13 07:39:00;;;;;;;9.13;5.40;;;1.30;99.90;;;;;;5032068;28;20928;-77
2022/02/13 07:41:26;;;;;;;8.07;5.40;;;1.40;99.90;;;;;;5012284;28;20413;-77
2022/02/13 07:43:53;;;;;;;7.10;4.70;;;1.40;99.90;;;;;;5012679;28;20919;-77
2022/02/13 07:46:23;;;;;;;9.57;5.57;;;1.50;99.90;;;;;;5012128;28;20441;-77
2022/02/13 07:48:49;;;;;;;7.80;5.33;;;1.60;99.90;;;;;;5012264;28;20423;-77
2022/02/13 07:51:15;;;;;;;8.57;5.77;;;1.60;99.90;;;;;;5011892;28;20416;-77
2022/02/13 07:53:42;;;;;;;10.70;5.60;;;1.70;99.90;;;;;;5012081;28;20435;-77
2022/02/13 07:56:09;;;;;;;5.33;3.73;;;1.80;99.90;;;;;;5011916;28;20858;-77
2022/02/13 07:58:34;;;;;;;10.27;5.50;;;1.90;99.90;;;;;;5011969;28;20416;-77
2022/02/13 08:01:05;;;;;;;6.83;4.80;;;2.00;99.90;;;;;;5012220;28;20423;-77
2022/02/13 08:03:31;;;;;;;5.97;4.60;;;2.10;99.90;;;;;;5012201;28;20184;-78
2022/02/13 08:05:57;;;;;;;9.37;6.50;;;2.10;99.90;;;;;;5018238;28;20887;-77
2022/02/13 08:08:23;;;;;;;9.20;4.73;;;2.20;99.90;;;;;;5028307;28;20524;-78
2022/02/13 08:10:49;;;;;;;7.43;5.17;;;2.30;99.90;;;;;;5027126;28;20421;-77
2022/02/13 08:13:15;;;;;;;7.37;5.10;;;2.40;99.90;;;;;;5031021;28;20487;-77
2022/02/13 08:15:42;;;;;;;7.23;5.13;;;2.50;99.90;;;;;;5032438;28;20468;-78
2022/02/13 08:18:08;;;;;;;9.43;4.80;;;2.60;99.90;;;;;;5030922;28;20414;-76
2022/02/13 08:20:34;;;;;;;9.40;4.93;;;2.70;99.90;;;;;;5031173;28;20426;-77
2022/02/13 08:23:00;;;;;;;11.20;6.07;;;2.80;99.90;;;;;;5031044;28;20422;-75
2022/02/13 08:25:26;;;;;;;9.67;5.30;;;2.90;99.90;;;;;;5030807;28;20434;-75
2022/02/13 08:27:52;;;;;;;8.40;5.27;;;3.00;99.90;;;;;;5030853;28;20278;-75
2022/02/13 08:30:17;;;;;;;8.10;5.20;;;3.10;99.90;;;;;;5031147;28;20188;-75
2022/02/13 08:32:43;;;;;;;9.73;5.03;;;3.20;99.90;;;;;;5030847;28;20184;-76
2022/02/13 08:35:09;;;;;;;7.20;4.97;;;3.30;99.90;;;;;;5030568;28;20689;-75
2022/02/13 08:37:35;;;;;;;6.57;5.47;;;3.40;99.90;;;;;;5030751;28;20940;-76
2022/02/13 08:40:01;;;;;;;6.83;4.90;;;3.50;99.90;;;;;;5030827;28;20614;-75
2022/02/13 08:42:26;;;;;;;7.63;4.90;;;3.60;99.90;;;;;;5030885;28;20184;-75
2022/02/13 08:44:52;;;;;;;9.17;5.13;;;3.60;99.90;;;;;;5030683;28;20184;-76
2022/02/13 08:47:18;;;;;;;6.60;5.07;;;3.70;99.90;;;;;;5030418;28;20202;-76
2022/02/13 08:49:44;;;;;;;7.00;5.10;;;3.70;99.90;;;;;;5030729;28;20178;-76
2022/02/13 08:52:10;;;;;;;7.00;4.57;;;3.80;99.90;;;;;;5030633;28;20191;-75
2022/02/13 08:54:36;;;;;;;9.00;5.40;;;3.80;99.90;;;;;;5030620;28;20477;-76
2022/02/13 08:57:03;;;;;;;7.67;4.97;;;3.80;99.90;;;;;;5030291;28;20439;-76
2022/02/13 08:59:28;;;;;;;9.47;5.33;;;4.00;99.90;;;;;;5026470;28;20471;-75
2022/02/13 09:01:54;;;;;;;7.60;5.10;;;4.10;99.90;;;;;;5022210;28;20902;-76
2022/02/13 09:04:20;;;;;;;8.80;5.00;;;4.30;99.90;;;;;;5030572;28;20192;-75
2022/02/13 09:06:46;;;;;;;6.83;4.57;;;4.40;99.90;;;;;;5030065;28;20674;-75
2022/02/13 09:09:12;;;;;;;10.37;5.03;;;4.50;99.90;;;;;;5030290;28;20563;-76
2022/02/13 09:11:38;;;;;;;8.03;5.13;;;4.50;99.90;;;;;;5030757;28;20964;-76
2022/02/13 09:14:05;;;;;;;8.60;4.80;;;4.60;99.90;;;;;;5030346;28;20588;-76
2022/02/13 09:16:31;;;;;;;6.17;4.73;;;4.70;99.90;;;;;;5030123;28;20526;-75
2022/02/13 09:18:57;;;;;;;5.47;4.20;;;4.80;99.90;;;;;;5030958;28;20476;-77
2022/02/13 09:21:23;;;;;;;9.30;5.00;;;5.00;99.90;;;;;;5031091;28;20512;-77
2022/02/13 09:23:49;;;;;;;7.13;4.63;;;5.00;99.90;;;;;;5030904;28;20187;-76
2022/02/13 09:26:18;;;;;;;11.93;5.33;;;5.10;99.90;;;;;;5031217;28;20987;-76
2022/02/13 09:28:44;;;;;;;10.67;4.80;;;5.30;99.90;;;;;;5031013;28;20650;-77
2022/02/13 09:31:09;;;;;;;8.17;4.90;;;5.30;99.90;;;;;;5031033;28;20425;-77
2022/02/13 09:33:35;;;;;;;7.40;5.30;;;5.40;99.90;;;;;;5030860;28;20233;-77
2022/02/13 09:36:03;;;;;;;6.83;4.80;;;5.40;99.90;;;;;;5034986;28;20211;-77
2022/02/13 09:38:28;;;;;;;5.70;4.70;;;5.40;99.90;;;;;;5034912;28;20757;-77
2022/02/13 09:40:54;;;;;;;8.37;5.17;;;5.50;99.90;;;;;;5034681;28;20499;-77
2022/02/13 09:43:20;;;;;;;7.03;4.80;;;5.50;99.90;;;;;;5034253;28;20654;-76
2022/02/13 09:45:51;;;;;;;6.77;4.50;;;5.60;99.90;;;;;;5033928;28;20205;-76
2022/02/13 09:48:18;;;;;;;5.83;4.57;;;5.70;99.90;;;;;;5033942;28;20999;-76
2022/02/13 09:50:45;;;;;;;8.20;4.77;;;5.80;99.90;;;;;;5033987;28;20949;-76
2022/02/13 09:53:13;;;;;;;8.23;4.83;;;5.90;99.90;;;;;;5034256;28;20767;-77
2022/02/13 09:55:40;;;;;;;6.63;4.53;;;6.00;99.90;;;;;;5033622;28;20468;-76
2022/02/13 09:58:05;;;;;;;7.37;5.07;;;6.00;99.90;;;;;;5033716;28;20829;-76
2022/02/13 10:00:50;;;;;;;6.40;4.27;;;6.10;99.90;;;;;;5033639;28;20490;-76
2022/02/13 10:03:17;;;;;;;5.97;4.40;;;6.20;99.90;;;;;;5033866;28;20819;-76
2022/02/13 10:05:43;;;;;;;10.30;4.67;;;6.30;99.90;;;;;;5033501;28;20949;-76
2022/02/13 10:08:09;;;;;;;7.10;4.87;;;6.40;99.90;;;;;;5033551;28;20511;-76
2022/02/13 10:10:35;;;;;;;6.97;5.40;;;6.40;99.90;;;;;;5033527;28;20187;-76
2022/02/13 10:13:00;;;;;;;7.00;4.97;;;6.60;99.90;;;;;;5033462;28;20189;-76
2022/02/13 10:15:31;;;;;;;9.63;5.30;;;6.70;99.90;;;;;;5033351;28;20262;-76
2022/02/13 10:18:08;;;;;;;5.83;4.57;;;6.80;99.90;;;;;;5022990;28;20195;-75
2022/02/13 10:20:40;;;;;;;7.77;4.83;;;6.80;99.90;;;;;;5023246;28;20427;-76
2022/02/13 10:23:08;;;;;;;6.40;4.67;;;7.00;99.90;;;;;;5032732;28;20509;-76
2022/02/13 10:25:34;;;;;;;5.80;4.37;;;7.10;99.90;;;;;;5032543;28;20453;-76
2022/02/13 10:28:12;;;;;;;7.13;4.47;;;7.40;99.90;;;;;;5032726;28;20838;-75
2022/02/13 10:30:46;;;;;;;8.17;4.73;;;7.60;99.90;;;;;;5032853;28;20785;-76
2022/02/13 10:33:22;;;;;;;6.47;4.73;;;7.80;99.90;;;;;;5032888;28;20510;-75
2022/02/13 10:36:05;;;;;;;8.30;5.63;;;8.00;99.90;;;;;;5032482;28;21043;-76
2022/02/13 10:38:35;;;;;;;9.17;4.73;;;8.30;99.90;;;;;;5032684;28;20414;-76
2022/02/13 10:41:24;;;;;;;8.80;4.83;;;8.50;99.90;;;;;;5032955;28;20419;-76
2022/02/13 10:44:06;;;;;;;8.20;4.70;;;8.80;99.90;;;;;;5032569;28;20793;-76
2022/02/13 10:46:37;;;;;;;7.47;4.70;;;8.90;99.90;;;;;;5031244;28;20438;-76
2022/02/13 10:49:08;;;;;;;6.63;4.93;;;8.90;99.90;;;;;;5032578;28;20419;-76
2022/02/13 10:51:34;;;;;;;8.13;4.63;;;9.10;99.90;;;;;;5032536;28;20427;-76
2022/02/13 10:54:02;;;;;;;6.93;4.80;;;9.20;99.90;;;;;;5032223;28;20463;-75
2022/02/13 10:56:28;;;;;;;6.97;4.20;;;9.50;99.90;;;;;;5032025;28;20545;-76
2022/02/13 10:58:59;;;;;;;7.63;4.40;;;9.70;99.90;;;;;;5032702;28;20441;-75
2022/02/13 11:01:26;;;;;;;8.17;4.80;;;10.00;99.90;;;;;;5031963;28;20419;-76
2022/02/13 11:03:57;;;;;;;7.67;4.40;;;10.30;99.90;;;;;;5032505;28;20435;-76
2022/02/13 11:06:28;;;;;;;8.10;5.37;;;10.50;99.90;;;;;;5031413;28;20823;-76
2022/02/13 11:08:58;;;;;;;6.70;4.30;;;10.80;99.90;;;;;;5032508;28;20431;-76
2022/02/13 11:11:24;;;;;;;9.37;4.80;;;10.90;99.90;;;;;;5032297;28;20430;-76
2022/02/13 11:13:50;;;;;;;7.63;4.50;;;11.40;99.90;;;;;;5032333;28;20482;-76
2022/02/13 11:16:35;;;;;;;5.47;3.97;;;12.40;99.90;;;;;;5031465;28;20458;-76
2022/02/13 11:19:05;;;;;;;7.10;5.10;;;13.00;99.10;;;;;;5032474;28;20423;-76
2022/02/13 11:21:32;;;;;;;5.57;4.13;;;13.40;96.60;;;;;;5032293;28;20435;-73
2022/02/13 11:23:59;;;;;;;7.67;4.10;;;13.90;94.80;;;;;;5031993;28;20976;-73
2022/02/13 11:26:36;;;;;;;6.33;4.50;;;14.70;93.00;;;;;;5031908;28;20541;-73
2022/02/13 11:29:03;;;;;;;6.03;3.90;;;14.90;86.70;;;;;;5032026;28;20442;-73
2022/02/13 11:31:41;;;;;;;7.40;4.13;;;15.60;81.90;;;;;;5032109;28;20426;-74
2022/02/13 11:34:13;;;;;;;8.40;4.20;;;17.80;71.80;;;;;;5031746;28;20561;-74
2022/02/13 11:36:48;;;;;;;5.10;3.53;;;18.00;71.00;;;;;;5031760;28;20439;-73
2022/02/13 11:39:34;;;;;;;6.43;4.20;;;18.60;61.00;;;;;;5031875;28;20801;-74
2022/02/13 11:42:02;;;;;;;5.73;3.53;;;19.10;57.10;;;;;;5031972;28;20974;-74
2022/02/13 11:44:43;;;;;;;5.30;3.70;;;19.60;54.80;;;;;;5031607;28;20465;-74
2022/02/13 11:47:42;;;;;;;5.40;3.70;;;19.80;53.50;;;;;;5031597;28;20542;-74
2022/02/13 11:50:09;;;;;;;7.90;3.30;;;19.40;51.60;;;;;;5031605;28;20807;-74
2022/02/13 11:53:03;;;;;;;6.60;3.47;;;19.00;52.60;;;;;;5031758;28;20821;-74
2022/02/13 11:55:32;;;;;;;6.33;3.73;;;18.10;51.70;;;;;;5031376;28;20907;-74
2022/02/13 11:58:12;;;;;;;5.70;3.60;;;17.10;52.80;;;;;;5031359;28;20448;-74
2022/02/13 12:00:47;;;;;;;7.27;3.80;;;16.40;54.10;;;;;;5031575;28;20469;-74
2022/02/13 12:03:32;;;;;;;6.17;3.33;;;15.90;55.30;;;;;;5031417;28;20430;-74
2022/02/13 12:06:01;;;;;;;7.20;3.67;;;17.50;57.70;;;;;;5030617;28;20534;-74
2022/02/13 12:08:27;;;;;;;5.27;2.93;;;18.20;53.50;;;;;;5031191;28;20433;-74
2022/02/13 12:11:07;;;;;;;5.03;3.37;;;17.90;52.40;;;;;;5031196;28;20857;-74
2022/02/13 12:13:38;;;;;;;5.43;3.20;;;17.70;53.20;;;;;;5031512;28;20191;-74
2022/02/13 12:16:06;;;;;;;4.30;3.20;;;17.60;52.40;;;;;;5031289;28;20973;-74
2022/02/13 12:18:32;;;;;;;5.13;3.07;;;17.90;53.40;;;;;;5030573;28;20427;-75
2022/02/13 12:21:00;;;;;;;4.27;2.93;;;17.60;52.90;;;;;;5031298;28;20435;-74
2022/02/13 12:23:26;;;;;;;5.27;3.33;;;17.60;53.10;;;;;;5031231;28;20481;-73
2022/02/13 12:25:52;;;;;;;8.43;3.27;;;16.90;53.10;;;;;;5030877;28;20439;-74
2022/02/13 12:28:19;;;;;;;4.50;3.10;;;16.50;55.00;;;;;;5030430;28;20427;-74
2022/02/13 12:30:54;;;;;;;6.37;3.47;;;16.20;56.10;;;;;;5030290;28;20445;-74
2022/02/13 12:33:25;;;;;;;7.13;3.60;;;16.10;57.50;;;;;;5030703;28;20414;-75
2022/02/13 12:35:52;;;;;;;4.93;3.00;;;16.30;58.60;;;;;;5030627;28;20532;-75
2022/02/13 12:38:19;;;;;;;5.67;3.37;;;16.60;58.40;;;;;;5014344;28;20451;-74
2022/02/13 12:40:45;;;;;;;4.90;2.90;;;16.70;57.90;;;;;;5030471;28;20415;-74
2022/02/13 12:43:19;;;;;;;4.00;2.53;;;16.20;57.40;;;;;;5030817;28;20461;-75
2022/02/13 12:45:46;;;;;;;5.23;3.40;;;16.00;58.70;;;;;;5031514;28;20447;-75
2022/02/13 12:48:14;;;;;;;5.57;3.40;;;16.30;59.80;;;;;;5030862;28;20917;-74
2022/02/13 12:50:43;;;;;;;6.20;3.70;;;16.10;60.80;;;;;;5030948;28;20446;-75
2022/02/13 12:53:12;;;;;;;4.20;3.20;;;15.90;61.60;;;;;;5029781;28;20430;-75
2022/02/13 12:55:39;;;;;;;4.00;2.70;;;15.90;64.80;;;;;;5023245;28;20472;-75